Mosca, Colorado
Current Conditions -  °F | °C
As of 6:52 AM on Monday 22 Dec 2014 (Local Time) from KALS Reporting Station
Broken Clouds Broken Clouds  
Wind Chill: 19°   Ceiling: 8000
Heat Index: 26°   Visibility: 10mi
Dew Point: 25°   Wind: 6mph
Humidity: 96%   Direction: 130°SE
Pressure: 29.77"   Gusts: NA
Location:  37.65°N, 105.87°W
Report Text: KALS 221352Z AUTO 13005KT 10SM BKN080 BKN090 M03/M04 A2977 RMK AO2 SLP085 T10331039
Loading
Personal Weather Stations






























Interactive Weather Map New forecast layout! Learn more

10-Day Weather Forecast

Advertisements
Track Severe Weather on mobile